sensor_id;sensor_type;location;lat;lon;timestamp;pressure;altitude;pressure_sealevel;temperature
68446;BMP280;35789;48.414;12.768;2022-09-01T00:00:07;97300.0;;;
68446;BMP280;35789;48.414;12.768;2022-09-01T00:05:01;97300.0;;;
68446;BMP280;35789;48.414;12.768;2022-09-01T00:10:04;97300.0;;;
68446;BMP280;35789;48.414;12.768;2022-09-01T00:15:00;97300.0;;;
68446;BMP280;35789;48.414;12.768;2022-09-01T00:20:00;97300.0;;;
68446;BMP280;35789;48.414;12.768;2022-09-01T00:25:00;97300.0;;;
68446;BMP280;35789;48.414;12.768;2022-09-01T00:30:00;97290.0;;;
68446;BMP280;35789;48.414;12.768;2022-09-01T00:35:00;97300.0;;;
68446;BMP280;35789;48.414;12.768;2022-09-01T00:40:00;97290.0;;;
68446;BMP280;35789;48.414;12.768;2022-09-01T00:45:00;97290.0;;;
68446;BMP280;35789;48.414;12.768;2022-09-01T00:50:04;97280.0;;;
68446;BMP280;35789;48.414;12.768;2022-09-01T00:55:08;97280.0;;;
68446;BMP280;35789;48.414;12.768;2022-09-01T01:00:07;97280.0;;;
68446;BMP280;35789;48.414;12.768;2022-09-01T01:05:00;97280.0;;;
68446;BMP280;35789;48.414;12.768;2022-09-01T01:10:00;97270.0;;;
68446;BMP280;35789;48.414;12.768;2022-09-01T01:15:00;97280.0;;;
68446;BMP280;35789;48.414;12.768;2022-09-01T01:20:01;97280.0;;;
68446;BMP280;35789;48.414;12.768;2022-09-01T01:25:00;97280.0;;;
68446;BMP280;35789;48.414;12.768;2022-09-01T01:30:04;97270.0;;;
68446;BMP280;35789;48.414;12.768;2022-09-01T01:35:00;97280.0;;;
68446;BMP280;35789;48.414;12.768;2022-09-01T01:40:02;97280.0;;;
68446;BMP280;35789;48.414;12.768;2022-09-01T01:45:00;97270.0;;;
68446;BMP280;35789;48.414;12.768;2022-09-01T01:50:00;97260.0;;;
68446;BMP280;35789;48.414;12.768;2022-09-01T01:55:00;97260.0;;;
68446;BMP280;35789;48.414;12.768;2022-09-01T02:00:00;97270.0;;;
68446;BMP280;35789;48.414;12.768;2022-09-01T02:05:00;97260.0;;;
68446;BMP280;35789;48.414;12.768;2022-09-01T02:10:00;97260.0;;;
68446;BMP280;35789;48.414;12.768;2022-09-01T02:15:00;97260.0;;;
68446;BMP280;35789;48.414;12.768;2022-09-01T02:20:00;97260.0;;;
68446;BMP280;35789;48.414;12.768;2022-09-01T02:25:00;97260.0;;;
68446;BMP280;35789;48.414;12.768;2022-09-01T02:30:00;97250.0;;;
68446;BMP280;35789;48.414;12.768;2022-09-01T02:35:00;97250.0;;;
68446;BMP280;35789;48.414;12.768;2022-09-01T02:40:00;97250.0;;;
68446;BMP280;35789;48.414;12.768;2022-09-01T02:45:00;97250.0;;;
68446;BMP280;35789;48.414;12.768;2022-09-01T02:50:00;97250.0;;;
68446;BMP280;35789;48.414;12.768;2022-09-01T02:55:00;97250.0;;;
68446;BMP280;35789;48.414;12.768;2022-09-01T03:00:01;97250.0;;;
68446;BMP280;35789;48.414;12.768;2022-09-01T03:05:00;97240.0;;;
68446;BMP280;35789;48.414;12.768;2022-09-01T03:10:00;97240.0;;;
68446;BMP280;35789;48.414;12.768;2022-09-01T03:15:00;97240.0;;;
68446;BMP280;35789;48.414;12.768;2022-09-01T03:20:00;97250.0;;;
68446;BMP280;35789;48.414;12.768;2022-09-01T03:25:00;97240.0;;;
68446;BMP280;35789;48.414;12.768;2022-09-01T03:30:00;97240.0;;;
68446;BMP280;35789;48.414;12.768;2022-09-01T03:35:00;97250.0;;;
68446;BMP280;35789;48.414;12.768;2022-09-01T03:40:01;97240.0;;;
68446;BMP280;35789;48.414;12.768;2022-09-01T03:45:00;97240.0;;;
68446;BMP280;35789;48.414;12.768;2022-09-01T03:50:00;97230.0;;;
68446;BMP280;35789;48.414;12.768;2022-09-01T03:55:00;97230.0;;;
68446;BMP280;35789;48.414;12.768;2022-09-01T04:00:00;97230.0;;;
68446;BMP280;35789;48.414;12.768;2022-09-01T04:05:00;97230.0;;;
68446;BMP280;35789;48.414;12.768;2022-09-01T04:10:00;97230.0;;;
68446;BMP280;35789;48.414;12.768;2022-09-01T04:15:00;97230.0;;;
68446;BMP280;35789;48.414;12.768;2022-09-01T04:20:01;97230.0;;;
68446;BMP280;35789;48.414;12.768;2022-09-01T04:25:00;97230.0;;;
68446;BMP280;35789;48.414;12.768;2022-09-01T04:30:00;97230.0;;;
68446;BMP280;35789;48.414;12.768;2022-09-01T04:35:00;97230.0;;;
68446;BMP280;35789;48.414;12.768;2022-09-01T04:40:01;97230.0;;;
68446;BMP280;35789;48.414;12.768;2022-09-01T04:45:02;97230.0;;;
68446;BMP280;35789;48.414;12.768;2022-09-01T04:50:00;97230.0;;;
68446;BMP280;35789;48.414;12.768;2022-09-01T04:55:00;97230.0;;;
68446;BMP280;35789;48.414;12.768;2022-09-01T05:00:00;97220.0;;;
68446;BMP280;35789;48.414;12.768;2022-09-01T05:05:00;97230.0;;;
68446;BMP280;35789;48.414;12.768;2022-09-01T05:10:00;97230.0;;;
68446;BMP280;35789;48.414;12.768;2022-09-01T05:15:00;97230.0;;;
68446;BMP280;35789;48.414;12.768;2022-09-01T05:20:00;97240.0;;;
68446;BMP280;35789;48.414;12.768;2022-09-01T05:25:01;97240.0;;;
68446;BMP280;35789;48.414;12.768;2022-09-01T05:30:00;97230.0;;;
68446;BMP280;35789;48.414;12.768;2022-09-01T05:35:00;97230.0;;;
68446;BMP280;35789;48.414;12.768;2022-09-01T05:40:00;97230.0;;;
68446;BMP280;35789;48.414;12.768;2022-09-01T05:45:00;97230.0;;;
68446;BMP280;35789;48.414;12.768;2022-09-01T05:50:00;97230.0;;;
68446;BMP280;35789;48.414;12.768;2022-09-01T05:55:00;97230.0;;;
68446;BMP280;35789;48.414;12.768;2022-09-01T06:00:04;97240.0;;;
68446;BMP280;35789;48.414;12.768;2022-09-01T06:05:00;97240.0;;;
68446;BMP280;35789;48.414;12.768;2022-09-01T06:10:00;97240.0;;;
68446;BMP280;35789;48.414;12.768;2022-09-01T06:15:00;97240.0;;;
68446;BMP280;35789;48.414;12.768;2022-09-01T06:20:00;97240.0;;;
68446;BMP280;35789;48.414;12.768;2022-09-01T06:25:00;97250.0;;;
68446;BMP280;35789;48.414;12.768;2022-09-01T06:30:00;97250.0;;;
68446;BMP280;35789;48.414;12.768;2022-09-01T06:35:00;97240.0;;;
68446;BMP280;35789;48.414;12.768;2022-09-01T06:40:00;97250.0;;;
68446;BMP280;35789;48.414;12.768;2022-09-01T06:45:00;97250.0;;;
68446;BMP280;35789;48.414;12.768;2022-09-01T06:50:00;97260.0;;;
68446;BMP280;35789;48.414;12.768;2022-09-01T06:55:00;97250.0;;;
68446;BMP280;35789;48.414;12.768;2022-09-01T07:00:00;97260.0;;;
68446;BMP280;35789;48.414;12.768;2022-09-01T07:05:00;97260.0;;;
68446;BMP280;35789;48.414;12.768;2022-09-01T07:10:00;97260.0;;;
68446;BMP280;35789;48.414;12.768;2022-09-01T07:15:00;97260.0;;;
68446;BMP280;35789;48.414;12.768;2022-09-01T07:20:00;97260.0;;;
68446;BMP280;35789;48.414;12.768;2022-09-01T07:25:00;97260.0;;;
68446;BMP280;35789;48.414;12.768;2022-09-01T07:30:00;97270.0;;;
68446;BMP280;35789;48.414;12.768;2022-09-01T07:35:00;97270.0;;;
68446;BMP280;35789;48.414;12.768;2022-09-01T07:40:00;97270.0;;;
68446;BMP280;35789;48.414;12.768;2022-09-01T07:45:00;97280.0;;;
68446;BMP280;35789;48.414;12.768;2022-09-01T07:50:00;97270.0;;;
68446;BMP280;35789;48.414;12.768;2022-09-01T07:55:00;97280.0;;;
68446;BMP280;35789;48.414;12.768;2022-09-01T08:00:00;97280.0;;;
68446;BMP280;35789;48.414;12.768;2022-09-01T08:05:00;97280.0;;;
68446;BMP280;35789;48.414;12.768;2022-09-01T08:10:00;97280.0;;;
68446;BMP280;35789;48.414;12.768;2022-09-01T08:15:01;97290.0;;;
68446;BMP280;35789;48.414;12.768;2022-09-01T08:20:01;97290.0;;;
68446;BMP280;35789;48.414;12.768;2022-09-01T08:25:00;97290.0;;;
68446;BMP280;35789;48.414;12.768;2022-09-01T08:30:00;97300.0;;;
68446;BMP280;35789;48.414;12.768;2022-09-01T08:35:00;97300.0;;;
68446;BMP280;35789;48.414;12.768;2022-09-01T08:40:00;97310.0;;;
68446;BMP280;35789;48.414;12.768;2022-09-01T08:45:06;97310.0;;;
68446;BMP280;35789;48.414;12.768;2022-09-01T08:50:01;97300.0;;;
68446;BMP280;35789;48.414;12.768;2022-09-01T08:55:09;97300.0;;;
68446;BMP280;35789;48.414;12.768;2022-09-01T09:00:01;97300.0;;;
68446;BMP280;35789;48.414;12.768;2022-09-01T09:05:06;97300.0;;;
68446;BMP280;35789;48.414;12.768;2022-09-01T09:10:08;97310.0;;;
68446;BMP280;35789;48.414;12.768;2022-09-01T09:15:13;97310.0;;;
68446;BMP280;35789;48.414;12.768;2022-09-01T09:20:02;97300.0;;;
68446;BMP280;35789;48.414;12.768;2022-09-01T09:25:07;97300.0;;;
68446;BMP280;35789;48.414;12.768;2022-09-01T09:30:05;97300.0;;;
68446;BMP280;35789;48.414;12.768;2022-09-01T09:35:22;97300.0;;;
68446;BMP280;35789;48.414;12.768;2022-09-01T09:40:08;97300.0;;;
68446;BMP280;35789;48.414;12.768;2022-09-01T09:45:01;97290.0;;;
68446;BMP280;35789;48.414;12.768;2022-09-01T09:50:12;97300.0;;;
68446;BMP280;35789;48.414;12.768;2022-09-01T09:55:04;97290.0;;;
68446;BMP280;35789;48.414;12.768;2022-09-01T10:00:05;97290.0;;;
68446;BMP280;35789;48.414;12.768;2022-09-01T10:05:21;97280.0;;;
68446;BMP280;35789;48.414;12.768;2022-09-01T10:10:05;97280.0;;;
68446;BMP280;35789;48.414;12.768;2022-09-01T10:15:05;97280.0;;;
68446;BMP280;35789;48.414;12.768;2022-09-01T10:20:06;97270.0;;;
68446;BMP280;35789;48.414;12.768;2022-09-01T10:25:01;97270.0;;;
68446;BMP280;35789;48.414;12.768;2022-09-01T10:30:06;97270.0;;;
68446;BMP280;35789;48.414;12.768;2022-09-01T10:35:02;97280.0;;;
68446;BMP280;35789;48.414;12.768;2022-09-01T10:40:13;97270.0;;;
68446;BMP280;35789;48.414;12.768;2022-09-01T10:45:01;97260.0;;;
68446;BMP280;35789;48.414;12.768;2022-09-01T10:50:04;97250.0;;;
68446;BMP280;35789;48.414;12.768;2022-09-01T10:55:03;97250.0;;;
68446;BMP280;35789;48.414;12.768;2022-09-01T11:05:13;97250.0;;;
68446;BMP280;35789;48.414;12.768;2022-09-01T11:10:22;97240.0;;;
68446;BMP280;35789;48.414;12.768;2022-09-01T11:15:04;97240.0;;;
68446;BMP280;35789;48.414;12.768;2022-09-01T11:20:06;97240.0;;;
68446;BMP280;35789;48.414;12.768;2022-09-01T11:25:31;97240.0;;;
68446;BMP280;35789;48.414;12.768;2022-09-01T11:30:06;97240.0;;;
68446;BMP280;35789;48.414;12.768;2022-09-01T11:35:04;97230.0;;;
68446;BMP280;35789;48.414;12.768;2022-09-01T11:40:03;97230.0;;;
68446;BMP280;35789;48.414;12.768;2022-09-01T11:45:04;97230.0;;;
68446;BMP280;35789;48.414;12.768;2022-09-01T11:50:04;97230.0;;;
68446;BMP280;35789;48.414;12.768;2022-09-01T11:55:02;97230.0;;;
68446;BMP280;35789;48.414;12.768;2022-09-01T12:00:05;97230.0;;;
68446;BMP280;35789;48.414;12.768;2022-09-01T12:05:03;97240.0;;;
68446;BMP280;35789;48.414;12.768;2022-09-01T12:10:00;97230.0;;;
68446;BMP280;35789;48.414;12.768;2022-09-01T12:15:04;97230.0;;;
68446;BMP280;35789;48.414;12.768;2022-09-01T12:20:18;97230.0;;;
68446;BMP280;35789;48.414;12.768;2022-09-01T12:25:00;97230.0;;;
68446;BMP280;35789;48.414;12.768;2022-09-01T12:30:00;97230.0;;;
68446;BMP280;35789;48.414;12.768;2022-09-01T12:35:03;97220.0;;;
68446;BMP280;35789;48.414;12.768;2022-09-01T12:40:00;97230.0;;;
68446;BMP280;35789;48.414;12.768;2022-09-01T12:45:02;97220.0;;;
68446;BMP280;35789;48.414;12.768;2022-09-01T12:50:02;97230.0;;;
68446;BMP280;35789;48.414;12.768;2022-09-01T12:55:14;97220.0;;;
68446;BMP280;35789;48.414;12.768;2022-09-01T13:00:15;97230.0;;;
68446;BMP280;35789;48.414;12.768;2022-09-01T13:05:21;97230.0;;;
68446;BMP280;35789;48.414;12.768;2022-09-01T13:10:00;97220.0;;;
68446;BMP280;35789;48.414;12.768;2022-09-01T13:15:00;97220.0;;;
68446;BMP280;35789;48.414;12.768;2022-09-01T13:20:00;97220.0;;;
68446;BMP280;35789;48.414;12.768;2022-09-01T13:25:00;97220.0;;;
68446;BMP280;35789;48.414;12.768;2022-09-01T13:30:00;97210.0;;;
68446;BMP280;35789;48.414;12.768;2022-09-01T13:35:00;97210.0;;;
68446;BMP280;35789;48.414;12.768;2022-09-01T13:40:00;97210.0;;;
68446;BMP280;35789;48.414;12.768;2022-09-01T13:45:00;97210.0;;;
68446;BMP280;35789;48.414;12.768;2022-09-01T13:50:00;97200.0;;;
68446;BMP280;35789;48.414;12.768;2022-09-01T13:55:00;97210.0;;;
68446;BMP280;35789;48.414;12.768;2022-09-01T14:00:00;97210.0;;;
68446;BMP280;35789;48.414;12.768;2022-09-01T14:05:00;97200.0;;;
68446;BMP280;35789;48.414;12.768;2022-09-01T14:10:00;97200.0;;;
68446;BMP280;35789;48.414;12.768;2022-09-01T14:15:00;97200.0;;;
68446;BMP280;35789;48.414;12.768;2022-09-01T14:20:01;97200.0;;;
68446;BMP280;35789;48.414;12.768;2022-09-01T14:25:01;97190.0;;;
68446;BMP280;35789;48.414;12.768;2022-09-01T14:30:00;97190.0;;;
68446;BMP280;35789;48.414;12.768;2022-09-01T14:35:01;97180.0;;;
68446;BMP280;35789;48.414;12.768;2022-09-01T14:40:00;97180.0;;;
68446;BMP280;35789;48.414;12.768;2022-09-01T14:45:00;97180.0;;;
68446;BMP280;35789;48.414;12.768;2022-09-01T14:50:00;97180.0;;;
68446;BMP280;35789;48.414;12.768;2022-09-01T14:55:00;97180.0;;;
68446;BMP280;35789;48.414;12.768;2022-09-01T15:00:00;97170.0;;;
68446;BMP280;35789;48.414;12.768;2022-09-01T15:05:00;97170.0;;;
68446;BMP280;35789;48.414;12.768;2022-09-01T15:10:00;97160.0;;;
68446;BMP280;35789;48.414;12.768;2022-09-01T15:15:00;97160.0;;;
68446;BMP280;35789;48.414;12.768;2022-09-01T15:20:03;97160.0;;;
68446;BMP280;35789;48.414;12.768;2022-09-01T15:25:00;97170.0;;;
68446;BMP280;35789;48.414;12.768;2022-09-01T15:30:00;97160.0;;;
68446;BMP280;35789;48.414;12.768;2022-09-01T15:35:00;97170.0;;;
68446;BMP280;35789;48.414;12.768;2022-09-01T15:40:01;97170.0;;;
68446;BMP280;35789;48.414;12.768;2022-09-01T15:45:01;97170.0;;;
68446;BMP280;35789;48.414;12.768;2022-09-01T15:50:02;97180.0;;;
68446;BMP280;35789;48.414;12.768;2022-09-01T15:55:02;97170.0;;;
68446;BMP280;35789;48.414;12.768;2022-09-01T16:00:00;97170.0;;;
68446;BMP280;35789;48.414;12.768;2022-09-01T16:05:00;97170.0;;;
68446;BMP280;35789;48.414;12.768;2022-09-01T16:10:00;97170.0;;;
68446;BMP280;35789;48.414;12.768;2022-09-01T16:15:00;97170.0;;;
68446;BMP280;35789;48.414;12.768;2022-09-01T16:20:07;97170.0;;;
68446;BMP280;35789;48.414;12.768;2022-09-01T16:25:13;97170.0;;;
68446;BMP280;35789;48.414;12.768;2022-09-01T16:30:05;97180.0;;;
68446;BMP280;35789;48.414;12.768;2022-09-01T16:35:01;97180.0;;;
68446;BMP280;35789;48.414;12.768;2022-09-01T16:45:08;97180.0;;;
68446;BMP280;35789;48.414;12.768;2022-09-01T16:50:11;97190.0;;;
68446;BMP280;35789;48.414;12.768;2022-09-01T16:55:19;97190.0;;;
68446;BMP280;35789;48.414;12.768;2022-09-01T17:00:04;97180.0;;;
68446;BMP280;35789;48.414;12.768;2022-09-01T17:05:14;97180.0;;;
68446;BMP280;35789;48.414;12.768;2022-09-01T17:10:05;97190.0;;;
68446;BMP280;35789;48.414;12.768;2022-09-01T17:15:06;97190.0;;;
68446;BMP280;35789;48.414;12.768;2022-09-01T17:20:02;97190.0;;;
68446;BMP280;35789;48.414;12.768;2022-09-01T17:25:05;97200.0;;;
68446;BMP280;35789;48.414;12.768;2022-09-01T17:30:02;97200.0;;;
68446;BMP280;35789;48.414;12.768;2022-09-01T17:35:11;97200.0;;;
68446;BMP280;35789;48.414;12.768;2022-09-01T17:40:12;97210.0;;;
68446;BMP280;35789;48.414;12.768;2022-09-01T17:45:11;97210.0;;;
68446;BMP280;35789;48.414;12.768;2022-09-01T17:50:10;97210.0;;;
68446;BMP280;35789;48.414;12.768;2022-09-01T17:55:12;97210.0;;;
68446;BMP280;35789;48.414;12.768;2022-09-01T18:00:07;97220.0;;;
68446;BMP280;35789;48.414;12.768;2022-09-01T18:05:08;97220.0;;;
68446;BMP280;35789;48.414;12.768;2022-09-01T18:10:05;97230.0;;;
68446;BMP280;35789;48.414;12.768;2022-09-01T18:15:06;97230.0;;;
68446;BMP280;35789;48.414;12.768;2022-09-01T18:20:07;97240.0;;;
68446;BMP280;35789;48.414;12.768;2022-09-01T18:25:05;97240.0;;;
68446;BMP280;35789;48.414;12.768;2022-09-01T18:30:00;97240.0;;;
68446;BMP280;35789;48.414;12.768;2022-09-01T18:35:15;97250.0;;;
68446;BMP280;35789;48.414;12.768;2022-09-01T18:40:11;97240.0;;;
68446;BMP280;35789;48.414;12.768;2022-09-01T18:45:08;97240.0;;;
68446;BMP280;35789;48.414;12.768;2022-09-01T18:50:11;97250.0;;;
68446;BMP280;35789;48.414;12.768;2022-09-01T18:55:07;97250.0;;;
68446;BMP280;35789;48.414;12.768;2022-09-01T19:00:08;97250.0;;;
68446;BMP280;35789;48.414;12.768;2022-09-01T19:05:07;97250.0;;;
68446;BMP280;35789;48.414;12.768;2022-09-01T19:10:07;97250.0;;;
68446;BMP280;35789;48.414;12.768;2022-09-01T19:15:11;97260.0;;;
68446;BMP280;35789;48.414;12.768;2022-09-01T19:20:06;97250.0;;;
68446;BMP280;35789;48.414;12.768;2022-09-01T19:25:05;97250.0;;;
68446;BMP280;35789;48.414;12.768;2022-09-01T19:30:04;97250.0;;;
68446;BMP280;35789;48.414;12.768;2022-09-01T19:35:08;97260.0;;;
68446;BMP280;35789;48.414;12.768;2022-09-01T19:40:00;97250.0;;;
68446;BMP280;35789;48.414;12.768;2022-09-01T19:45:08;97250.0;;;
68446;BMP280;35789;48.414;12.768;2022-09-01T19:50:10;97250.0;;;
68446;BMP280;35789;48.414;12.768;2022-09-01T19:55:06;97240.0;;;
68446;BMP280;35789;48.414;12.768;2022-09-01T20:00:08;97240.0;;;
68446;BMP280;35789;48.414;12.768;2022-09-01T20:05:10;97250.0;;;
68446;BMP280;35789;48.414;12.768;2022-09-01T20:10:18;97250.0;;;
68446;BMP280;35789;48.414;12.768;2022-09-01T20:15:11;97250.0;;;
68446;BMP280;35789;48.414;12.768;2022-09-01T20:20:09;97240.0;;;
68446;BMP280;35789;48.414;12.768;2022-09-01T20:25:03;97240.0;;;
68446;BMP280;35789;48.414;12.768;2022-09-01T20:30:05;97240.0;;;
68446;BMP280;35789;48.414;12.768;2022-09-01T20:35:10;97240.0;;;
68446;BMP280;35789;48.414;12.768;2022-09-01T20:40:05;97240.0;;;
68446;BMP280;35789;48.414;12.768;2022-09-01T20:50:07;97240.0;;;
68446;BMP280;35789;48.414;12.768;2022-09-01T20:55:10;97240.0;;;
68446;BMP280;35789;48.414;12.768;2022-09-01T21:00:06;97240.0;;;
68446;BMP280;35789;48.414;12.768;2022-09-01T21:05:11;97240.0;;;
68446;BMP280;35789;48.414;12.768;2022-09-01T21:10:15;97240.0;;;
68446;BMP280;35789;48.414;12.768;2022-09-01T21:15:16;97240.0;;;
68446;BMP280;35789;48.414;12.768;2022-09-01T21:20:10;97250.0;;;
68446;BMP280;35789;48.414;12.768;2022-09-01T21:25:00;97250.0;;;
68446;BMP280;35789;48.414;12.768;2022-09-01T21:30:04;97250.0;;;
68446;BMP280;35789;48.414;12.768;2022-09-01T21:35:02;97250.0;;;
68446;BMP280;35789;48.414;12.768;2022-09-01T21:40:00;97250.0;;;
68446;BMP280;35789;48.414;12.768;2022-09-01T21:45:03;97240.0;;;
68446;BMP280;35789;48.414;12.768;2022-09-01T21:50:00;97240.0;;;
68446;BMP280;35789;48.414;12.768;2022-09-01T21:55:01;97240.0;;;
68446;BMP280;35789;48.414;12.768;2022-09-01T22:00:00;97230.0;;;
68446;BMP280;35789;48.414;12.768;2022-09-01T22:05:00;97240.0;;;
68446;BMP280;35789;48.414;12.768;2022-09-01T22:10:00;97230.0;;;
68446;BMP280;35789;48.414;12.768;2022-09-01T22:15:01;97220.0;;;
68446;BMP280;35789;48.414;12.768;2022-09-01T22:20:00;97220.0;;;
68446;BMP280;35789;48.414;12.768;2022-09-01T22:25:04;97220.0;;;
68446;BMP280;35789;48.414;12.768;2022-09-01T22:30:00;97220.0;;;
68446;BMP280;35789;48.414;12.768;2022-09-01T22:35:02;97220.0;;;
68446;BMP280;35789;48.414;12.768;2022-09-01T22:40:01;97220.0;;;
68446;BMP280;35789;48.414;12.768;2022-09-01T22:45:01;97220.0;;;
68446;BMP280;35789;48.414;12.768;2022-09-01T22:50:00;97210.0;;;
68446;BMP280;35789;48.414;12.768;2022-09-01T22:55:00;97210.0;;;
68446;BMP280;35789;48.414;12.768;2022-09-01T23:00:03;97200.0;;;
68446;BMP280;35789;48.414;12.768;2022-09-01T23:05:00;97210.0;;;
68446;BMP280;35789;48.414;12.768;2022-09-01T23:10:00;97200.0;;;
68446;BMP280;35789;48.414;12.768;2022-09-01T23:15:00;97210.0;;;
68446;BMP280;35789;48.414;12.768;2022-09-01T23:20:00;97210.0;;;
68446;BMP280;35789;48.414;12.768;2022-09-01T23:25:00;97200.0;;;
68446;BMP280;35789;48.414;12.768;2022-09-01T23:30:01;97190.0;;;
68446;BMP280;35789;48.414;12.768;2022-09-01T23:35:01;97190.0;;;
68446;BMP280;35789;48.414;12.768;2022-09-01T23:40:01;97190.0;;;
68446;BMP280;35789;48.414;12.768;2022-09-01T23:45:00;97190.0;;;
68446;BMP280;35789;48.414;12.768;2022-09-01T23:50:00;97190.0;;;
68446;BMP280;35789;48.414;12.768;2022-09-01T23:55:00;97180.0;;;
